sensor_id;sensor_type;location;lat;lon;timestamp;P1;durP1;ratioP1;P2;durP2;ratioP2
75837;SDS011;64480;52.040;113.502;2022-12-07T00:01:53;7.40;;;3.30;;
75837;SDS011;64480;52.040;113.502;2022-12-07T00:04:57;13.63;;;4.03;;
75837;SDS011;64480;52.040;113.502;2022-12-07T00:08:00;8.85;;;2.85;;
75837;SDS011;64480;52.040;113.502;2022-12-07T00:11:07;10.77;;;3.40;;
75837;SDS011;64480;52.040;113.502;2022-12-07T00:14:13;10.50;;;4.00;;
75837;SDS011;64480;52.040;113.502;2022-12-07T00:17:17;7.60;;;2.58;;
75837;SDS011;64480;52.040;113.502;2022-12-07T00:20:21;10.63;;;3.75;;
75837;SDS011;64480;52.040;113.502;2022-12-07T00:26:33;11.70;;;4.65;;
75837;SDS011;64480;52.040;113.502;2022-12-07T00:29:39;17.25;;;5.88;;
75837;SDS011;64480;52.040;113.502;2022-12-07T00:32:43;10.27;;;4.03;;
75837;SDS011;64480;52.040;113.502;2022-12-07T00:35:46;11.93;;;4.72;;
75837;SDS011;64480;52.040;113.502;2022-12-07T00:38:49;23.27;;;5.50;;
75837;SDS011;64480;52.040;113.502;2022-12-07T00:42:49;14.02;;;6.72;;
75837;SDS011;64480;52.040;113.502;2022-12-07T00:47:18;14.30;;;4.55;;
75837;SDS011;64480;52.040;113.502;2022-12-07T00:50:30;6.75;;;2.45;;
75837;SDS011;64480;52.040;113.502;2022-12-07T01:07:43;12.45;;;3.63;;
75837;SDS011;64480;52.040;113.502;2022-12-07T01:11:57;14.05;;;4.90;;
75837;SDS011;64480;52.040;113.502;2022-12-07T01:20:55;18.48;;;7.00;;
75837;SDS011;64480;52.040;113.502;2022-12-07T01:25:20;18.58;;;3.05;;
75837;SDS011;64480;52.040;113.502;2022-12-07T01:29:26;10.25;;;3.70;;
75837;SDS011;64480;52.040;113.502;2022-12-07T01:32:29;6.90;;;2.65;;
75837;SDS011;64480;52.040;113.502;2022-12-07T01:35:33;6.90;;;2.75;;
75837;SDS011;64480;52.040;113.502;2022-12-07T01:38:36;13.57;;;3.50;;
75837;SDS011;64480;52.040;113.502;2022-12-07T01:41:40;14.27;;;3.03;;
75837;SDS011;64480;52.040;113.502;2022-12-07T01:48:21;14.65;;;3.95;;
75837;SDS011;64480;52.040;113.502;2022-12-07T01:51:28;17.15;;;5.15;;
75837;SDS011;64480;52.040;113.502;2022-12-07T01:54:32;12.35;;;4.72;;
75837;SDS011;64480;52.040;113.502;2022-12-07T01:57:38;18.85;;;5.40;;
75837;SDS011;64480;52.040;113.502;2022-12-07T02:00:44;15.20;;;5.15;;
75837;SDS011;64480;52.040;113.502;2022-12-07T02:03:48;17.67;;;6.05;;
75837;SDS011;64480;52.040;113.502;2022-12-07T02:06:51;22.90;;;8.55;;
75837;SDS011;64480;52.040;113.502;2022-12-07T02:09:56;18.73;;;6.32;;
75837;SDS011;64480;52.040;113.502;2022-12-07T02:13:04;10.50;;;4.00;;
75837;SDS011;64480;52.040;113.502;2022-12-07T02:30:02;11.55;;;3.85;;
75837;SDS011;64480;52.040;113.502;2022-12-07T02:36:15;13.38;;;4.22;;
75837;SDS011;64480;52.040;113.502;2022-12-07T02:39:29;9.80;;;2.88;;
75837;SDS011;64480;52.040;113.502;2022-12-07T02:42:42;10.75;;;2.30;;
75837;SDS011;64480;52.040;113.502;2022-12-07T02:45:50;6.80;;;2.90;;
75837;SDS011;64480;52.040;113.502;2022-12-07T02:48:56;8.65;;;3.42;;
75837;SDS011;64480;52.040;113.502;2022-12-07T02:52:02;7.65;;;2.70;;
75837;SDS011;64480;52.040;113.502;2022-12-07T02:55:06;5.68;;;2.42;;
75837;SDS011;64480;52.040;113.502;2022-12-07T03:11:04;16.08;;;2.65;;
75837;SDS011;64480;52.040;113.502;2022-12-07T03:14:17;8.50;;;3.20;;
75837;SDS011;64480;52.040;113.502;2022-12-07T03:17:27;6.18;;;1.85;;
75837;SDS011;64480;52.040;113.502;2022-12-07T03:20:32;6.18;;;1.75;;
75837;SDS011;64480;52.040;113.502;2022-12-07T03:23:40;6.50;;;2.33;;
75837;SDS011;64480;52.040;113.502;2022-12-07T03:26:47;6.53;;;2.13;;
75837;SDS011;64480;52.040;113.502;2022-12-07T03:29:59;5.63;;;1.52;;
75837;SDS011;64480;52.040;113.502;2022-12-07T03:33:13;1.95;;;0.60;;
75837;SDS011;64480;52.040;113.502;2022-12-07T03:39:44;11.57;;;1.90;;
75837;SDS011;64480;52.040;113.502;2022-12-07T03:43:09;7.38;;;1.85;;
75837;SDS011;64480;52.040;113.502;2022-12-07T03:54:35;19.83;;;3.80;;
75837;SDS011;64480;52.040;113.502;2022-12-07T04:06:38;4.18;;;0.73;;
75837;SDS011;64480;52.040;113.502;2022-12-07T04:14:24;5.25;;;1.63;;
75837;SDS011;64480;52.040;113.502;2022-12-07T04:17:28;16.67;;;3.15;;
75837;SDS011;64480;52.040;113.502;2022-12-07T04:20:31;11.35;;;2.67;;
75837;SDS011;64480;52.040;113.502;2022-12-07T04:23:35;21.00;;;3.90;;
75837;SDS011;64480;52.040;113.502;2022-12-07T04:26:38;15.38;;;3.65;;
75837;SDS011;64480;52.040;113.502;2022-12-07T04:29:41;12.13;;;1.48;;
75837;SDS011;64480;52.040;113.502;2022-12-07T04:32:45;15.75;;;3.20;;
75837;SDS011;64480;52.040;113.502;2022-12-07T04:35:48;9.27;;;2.30;;
75837;SDS011;64480;52.040;113.502;2022-12-07T04:38:52;6.30;;;1.80;;
75837;SDS011;64480;52.040;113.502;2022-12-07T04:42:00;8.10;;;1.80;;
75837;SDS011;64480;52.040;113.502;2022-12-07T04:45:04;16.13;;;2.95;;
75837;SDS011;64480;52.040;113.502;2022-12-07T04:48:08;4.13;;;1.33;;
75837;SDS011;64480;52.040;113.502;2022-12-07T04:51:11;8.60;;;2.10;;
75837;SDS011;64480;52.040;113.502;2022-12-07T04:54:15;13.20;;;2.20;;
75837;SDS011;64480;52.040;113.502;2022-12-07T04:57:19;6.88;;;1.80;;
75837;SDS011;64480;52.040;113.502;2022-12-07T05:00:22;12.60;;;2.53;;
75837;SDS011;64480;52.040;113.502;2022-12-07T05:03:26;22.65;;;4.47;;
75837;SDS011;64480;52.040;113.502;2022-12-07T05:06:30;22.85;;;4.50;;
75837;SDS011;64480;52.040;113.502;2022-12-07T05:09:36;19.02;;;3.50;;
75837;SDS011;64480;52.040;113.502;2022-12-07T05:12:39;13.38;;;3.15;;
75837;SDS011;64480;52.040;113.502;2022-12-07T05:15:43;13.75;;;2.72;;
75837;SDS011;64480;52.040;113.502;2022-12-07T05:18:46;5.22;;;1.75;;
75837;SDS011;64480;52.040;113.502;2022-12-07T05:21:49;11.18;;;3.10;;
75837;SDS011;64480;52.040;113.502;2022-12-07T05:24:53;8.57;;;1.85;;
75837;SDS011;64480;52.040;113.502;2022-12-07T05:27:56;10.63;;;2.20;;
75837;SDS011;64480;52.040;113.502;2022-12-07T05:31:00;11.18;;;3.00;;
75837;SDS011;64480;52.040;113.502;2022-12-07T05:34:06;8.20;;;2.50;;
75837;SDS011;64480;52.040;113.502;2022-12-07T05:37:09;11.23;;;2.70;;
75837;SDS011;64480;52.040;113.502;2022-12-07T05:40:13;3.95;;;1.90;;
75837;SDS011;64480;52.040;113.502;2022-12-07T05:43:17;8.13;;;1.95;;
75837;SDS011;64480;52.040;113.502;2022-12-07T05:46:20;15.02;;;3.50;;
75837;SDS011;64480;52.040;113.502;2022-12-07T05:49:23;8.75;;;3.05;;
75837;SDS011;64480;52.040;113.502;2022-12-07T05:52:26;8.90;;;2.95;;
75837;SDS011;64480;52.040;113.502;2022-12-07T05:55:30;14.60;;;2.90;;
75837;SDS011;64480;52.040;113.502;2022-12-07T05:58:33;8.18;;;2.53;;
75837;SDS011;64480;52.040;113.502;2022-12-07T06:01:58;5.93;;;2.53;;
75837;SDS011;64480;52.040;113.502;2022-12-07T06:05:04;10.55;;;2.78;;
75837;SDS011;64480;52.040;113.502;2022-12-07T06:08:08;11.68;;;2.85;;
75837;SDS011;64480;52.040;113.502;2022-12-07T06:11:11;14.45;;;5.07;;
75837;SDS011;64480;52.040;113.502;2022-12-07T06:14:33;8.00;;;3.22;;
75837;SDS011;64480;52.040;113.502;2022-12-07T06:17:36;15.68;;;4.63;;
75837;SDS011;64480;52.040;113.502;2022-12-07T06:20:40;11.80;;;3.53;;
75837;SDS011;64480;52.040;113.502;2022-12-07T06:23:43;10.02;;;3.35;;
75837;SDS011;64480;52.040;113.502;2022-12-07T06:26:46;25.15;;;4.55;;
75837;SDS011;64480;52.040;113.502;2022-12-07T06:29:49;20.48;;;4.63;;
75837;SDS011;64480;52.040;113.502;2022-12-07T06:32:53;18.25;;;5.20;;
75837;SDS011;64480;52.040;113.502;2022-12-07T06:35:56;17.40;;;4.47;;
75837;SDS011;64480;52.040;113.502;2022-12-07T06:38:59;12.57;;;3.08;;
75837;SDS011;64480;52.040;113.502;2022-12-07T06:42:02;8.80;;;2.60;;
75837;SDS011;64480;52.040;113.502;2022-12-07T06:45:05;7.13;;;2.75;;
75837;SDS011;64480;52.040;113.502;2022-12-07T06:48:09;5.78;;;1.30;;
75837;SDS011;64480;52.040;113.502;2022-12-07T06:51:12;9.82;;;2.47;;
75837;SDS011;64480;52.040;113.502;2022-12-07T06:54:16;4.80;;;1.55;;
75837;SDS011;64480;52.040;113.502;2022-12-07T06:57:19;4.03;;;1.52;;
75837;SDS011;64480;52.040;113.502;2022-12-07T07:00:22;6.47;;;2.38;;
75837;SDS011;64480;52.040;113.502;2022-12-07T07:03:26;7.20;;;2.83;;
75837;SDS011;64480;52.040;113.502;2022-12-07T07:06:29;5.03;;;1.33;;
75837;SDS011;64480;52.040;113.502;2022-12-07T07:09:32;9.65;;;2.65;;
75837;SDS011;64480;52.040;113.502;2022-12-07T07:12:35;12.52;;;2.60;;
75837;SDS011;64480;52.040;113.502;2022-12-07T07:15:39;4.80;;;2.10;;
75837;SDS011;64480;52.040;113.502;2022-12-07T07:18:42;16.10;;;2.97;;
75837;SDS011;64480;52.040;113.502;2022-12-07T07:21:45;17.63;;;2.83;;
75837;SDS011;64480;52.040;113.502;2022-12-07T07:24:49;10.90;;;2.97;;
75837;SDS011;64480;52.040;113.502;2022-12-07T07:28:08;5.90;;;1.60;;
75837;SDS011;64480;52.040;113.502;2022-12-07T07:31:11;10.32;;;2.90;;
75837;SDS011;64480;52.040;113.502;2022-12-07T07:34:14;9.85;;;2.95;;
75837;SDS011;64480;52.040;113.502;2022-12-07T07:37:18;27.55;;;5.45;;
75837;SDS011;64480;52.040;113.502;2022-12-07T07:40:23;25.98;;;7.28;;
75837;SDS011;64480;52.040;113.502;2022-12-07T07:43:27;12.68;;;3.50;;
75837;SDS011;64480;52.040;113.502;2022-12-07T07:46:30;6.65;;;2.05;;
75837;SDS011;64480;52.040;113.502;2022-12-07T07:49:35;15.20;;;3.90;;
75837;SDS011;64480;52.040;113.502;2022-12-07T07:52:45;21.50;;;5.00;;
75837;SDS011;64480;52.040;113.502;2022-12-07T07:55:52;32.80;;;6.82;;
75837;SDS011;64480;52.040;113.502;2022-12-07T07:58:56;21.30;;;5.07;;
75837;SDS011;64480;52.040;113.502;2022-12-07T08:02:02;33.70;;;6.18;;
75837;SDS011;64480;52.040;113.502;2022-12-07T08:05:05;11.55;;;2.92;;
75837;SDS011;64480;52.040;113.502;2022-12-07T08:08:09;19.58;;;4.80;;
75837;SDS011;64480;52.040;113.502;2022-12-07T08:11:13;27.52;;;5.53;;
75837;SDS011;64480;52.040;113.502;2022-12-07T08:14:16;23.63;;;7.35;;
75837;SDS011;64480;52.040;113.502;2022-12-07T08:17:19;26.30;;;6.07;;
75837;SDS011;64480;52.040;113.502;2022-12-07T08:20:23;34.30;;;6.35;;
75837;SDS011;64480;52.040;113.502;2022-12-07T08:23:26;36.08;;;8.65;;
75837;SDS011;64480;52.040;113.502;2022-12-07T08:26:40;31.55;;;8.80;;
75837;SDS011;64480;52.040;113.502;2022-12-07T08:29:44;26.83;;;6.00;;
75837;SDS011;64480;52.040;113.502;2022-12-07T08:32:47;22.98;;;5.63;;
75837;SDS011;64480;52.040;113.502;2022-12-07T08:35:51;22.67;;;5.95;;
75837;SDS011;64480;52.040;113.502;2022-12-07T08:38:54;22.88;;;6.28;;
75837;SDS011;64480;52.040;113.502;2022-12-07T08:42:18;9.73;;;3.75;;
75837;SDS011;64480;52.040;113.502;2022-12-07T08:45:21;6.38;;;2.30;;
75837;SDS011;64480;52.040;113.502;2022-12-07T08:48:28;3.80;;;1.42;;
75837;SDS011;64480;52.040;113.502;2022-12-07T08:51:32;4.95;;;1.40;;
75837;SDS011;64480;52.040;113.502;2022-12-07T08:54:36;7.35;;;3.15;;
75837;SDS011;64480;52.040;113.502;2022-12-07T08:57:42;8.13;;;2.63;;
75837;SDS011;64480;52.040;113.502;2022-12-07T09:00:53;3.55;;;1.50;;
75837;SDS011;64480;52.040;113.502;2022-12-07T09:04:03;7.95;;;2.15;;
75837;SDS011;64480;52.040;113.502;2022-12-07T09:07:07;6.00;;;2.58;;
75837;SDS011;64480;52.040;113.502;2022-12-07T09:10:18;7.72;;;3.13;;
75837;SDS011;64480;52.040;113.502;2022-12-07T09:13:22;8.00;;;1.90;;
75837;SDS011;64480;52.040;113.502;2022-12-07T09:16:25;10.10;;;4.13;;
75837;SDS011;64480;52.040;113.502;2022-12-07T09:19:30;2.85;;;1.38;;
75837;SDS011;64480;52.040;113.502;2022-12-07T09:22:34;13.05;;;3.33;;
75837;SDS011;64480;52.040;113.502;2022-12-07T09:25:37;10.68;;;3.20;;
75837;SDS011;64480;52.040;113.502;2022-12-07T09:28:41;10.52;;;3.60;;
75837;SDS011;64480;52.040;113.502;2022-12-07T09:31:44;10.68;;;3.95;;
75837;SDS011;64480;52.040;113.502;2022-12-07T09:34:47;16.77;;;5.10;;
75837;SDS011;64480;52.040;113.502;2022-12-07T09:37:51;7.45;;;2.10;;
75837;SDS011;64480;52.040;113.502;2022-12-07T09:40:54;4.18;;;0.98;;
75837;SDS011;64480;52.040;113.502;2022-12-07T09:44:10;8.90;;;2.00;;
75837;SDS011;64480;52.040;113.502;2022-12-07T09:47:16;1.80;;;0.95;;
75837;SDS011;64480;52.040;113.502;2022-12-07T09:50:21;5.65;;;1.85;;
75837;SDS011;64480;52.040;113.502;2022-12-07T09:53:30;9.50;;;3.10;;
75837;SDS011;64480;52.040;113.502;2022-12-07T09:56:36;7.15;;;2.65;;
75837;SDS011;64480;52.040;113.502;2022-12-07T09:59:40;13.02;;;4.10;;
75837;SDS011;64480;52.040;113.502;2022-12-07T10:02:44;5.80;;;2.20;;
75837;SDS011;64480;52.040;113.502;2022-12-07T10:05:55;12.48;;;3.88;;
75837;SDS011;64480;52.040;113.502;2022-12-07T10:08:59;11.55;;;4.15;;
75837;SDS011;64480;52.040;113.502;2022-12-07T10:15:11;29.35;;;11.68;;
75837;SDS011;64480;52.040;113.502;2022-12-07T10:18:19;14.68;;;5.07;;
75837;SDS011;64480;52.040;113.502;2022-12-07T10:21:28;11.05;;;4.50;;
75837;SDS011;64480;52.040;113.502;2022-12-07T10:24:31;15.05;;;5.07;;
75837;SDS011;64480;52.040;113.502;2022-12-07T10:27:34;15.07;;;3.72;;
75837;SDS011;64480;52.040;113.502;2022-12-07T10:34:27;17.42;;;5.13;;
75837;SDS011;64480;52.040;113.502;2022-12-07T10:37:40;9.40;;;3.58;;
75837;SDS011;64480;52.040;113.502;2022-12-07T10:40:44;12.40;;;4.38;;
75837;SDS011;64480;52.040;113.502;2022-12-07T10:43:48;10.70;;;4.00;;
75837;SDS011;64480;52.040;113.502;2022-12-07T10:56:55;10.45;;;3.78;;
75837;SDS011;64480;52.040;113.502;2022-12-07T11:00:18;13.52;;;4.07;;
75837;SDS011;64480;52.040;113.502;2022-12-07T11:07:18;11.95;;;2.92;;
75837;SDS011;64480;52.040;113.502;2022-12-07T11:17:56;5.53;;;2.10;;
75837;SDS011;64480;52.040;113.502;2022-12-07T11:20:49;9.32;;;3.78;;
75837;SDS011;64480;52.040;113.502;2022-12-07T11:24:10;8.95;;;2.13;;
75837;SDS011;64480;52.040;113.502;2022-12-07T11:31:17;4.80;;;1.55;;
75837;SDS011;64480;52.040;113.502;2022-12-07T11:37:39;9.07;;;1.73;;
75837;SDS011;64480;52.040;113.502;2022-12-07T11:40:49;7.97;;;2.45;;
75837;SDS011;64480;52.040;113.502;2022-12-07T11:43:58;7.47;;;2.78;;
75837;SDS011;64480;52.040;113.502;2022-12-07T11:50:54;4.22;;;1.60;;
75837;SDS011;64480;52.040;113.502;2022-12-07T11:54:18;4.13;;;1.73;;
75837;SDS011;64480;52.040;113.502;2022-12-07T11:57:39;24.38;;;8.07;;
75837;SDS011;64480;52.040;113.502;2022-12-07T12:00:49;8.85;;;2.70;;
75837;SDS011;64480;52.040;113.502;2022-12-07T12:07:29;15.25;;;2.85;;
75837;SDS011;64480;52.040;113.502;2022-12-07T12:10:55;7.68;;;2.47;;
75837;SDS011;64480;52.040;113.502;2022-12-07T12:17:50;7.60;;;3.10;;
75837;SDS011;64480;52.040;113.502;2022-12-07T12:21:14;16.90;;;5.57;;
75837;SDS011;64480;52.040;113.502;2022-12-07T12:24:22;15.80;;;3.95;;
75837;SDS011;64480;52.040;113.502;2022-12-07T12:27:32;12.32;;;4.38;;
75837;SDS011;64480;52.040;113.502;2022-12-07T12:30:38;10.05;;;3.58;;
75837;SDS011;64480;52.040;113.502;2022-12-07T12:33:49;10.45;;;3.50;;
75837;SDS011;64480;52.040;113.502;2022-12-07T12:36:54;7.93;;;3.05;;
75837;SDS011;64480;52.040;113.502;2022-12-07T12:46:52;13.05;;;2.63;;
75837;SDS011;64480;52.040;113.502;2022-12-07T12:50:26;8.77;;;4.00;;
75837;SDS011;64480;52.040;113.502;2022-12-07T12:53:27;7.20;;;2.70;;
75837;SDS011;64480;52.040;113.502;2022-12-07T12:56:51;4.80;;;0.88;;
75837;SDS011;64480;52.040;113.502;2022-12-07T13:00:19;7.72;;;1.98;;
75837;SDS011;64480;52.040;113.502;2022-12-07T13:03:27;11.40;;;2.65;;
75837;SDS011;64480;52.040;113.502;2022-12-07T13:20:58;7.63;;;2.45;;
75837;SDS011;64480;52.040;113.502;2022-12-07T13:24:29;7.32;;;2.28;;
75837;SDS011;64480;52.040;113.502;2022-12-07T13:37:54;6.95;;;1.90;;
75837;SDS011;64480;52.040;113.502;2022-12-07T13:41:05;7.53;;;2.65;;
75837;SDS011;64480;52.040;113.502;2022-12-07T13:54:30;8.00;;;2.30;;
75837;SDS011;64480;52.040;113.502;2022-12-07T13:57:34;8.15;;;2.25;;
75837;SDS011;64480;52.040;113.502;2022-12-07T14:00:44;7.32;;;2.70;;
75837;SDS011;64480;52.040;113.502;2022-12-07T14:03:47;9.73;;;3.08;;
75837;SDS011;64480;52.040;113.502;2022-12-07T14:06:53;7.90;;;3.03;;
75837;SDS011;64480;52.040;113.502;2022-12-07T14:10:00;10.88;;;3.97;;
75837;SDS011;64480;52.040;113.502;2022-12-07T14:16:43;9.43;;;2.40;;
75837;SDS011;64480;52.040;113.502;2022-12-07T14:20:01;4.43;;;1.40;;
75837;SDS011;64480;52.040;113.502;2022-12-07T14:23:21;6.93;;;2.38;;
75837;SDS011;64480;52.040;113.502;2022-12-07T14:29:31;6.28;;;2.10;;
75837;SDS011;64480;52.040;113.502;2022-12-07T14:32:36;9.90;;;2.83;;
75837;SDS011;64480;52.040;113.502;2022-12-07T14:35:40;6.88;;;2.38;;
75837;SDS011;64480;52.040;113.502;2022-12-07T14:38:43;8.25;;;2.08;;
75837;SDS011;64480;52.040;113.502;2022-12-07T14:41:47;7.55;;;2.17;;
75837;SDS011;64480;52.040;113.502;2022-12-07T14:44:53;8.98;;;2.50;;
75837;SDS011;64480;52.040;113.502;2022-12-07T14:47:56;2.60;;;1.23;;
75837;SDS011;64480;52.040;113.502;2022-12-07T14:51:19;8.93;;;2.22;;
75837;SDS011;64480;52.040;113.502;2022-12-07T14:54:42;6.15;;;1.85;;
75837;SDS011;64480;52.040;113.502;2022-12-07T14:57:48;4.57;;;1.65;;
75837;SDS011;64480;52.040;113.502;2022-12-07T15:00:51;6.00;;;1.50;;
75837;SDS011;64480;52.040;113.502;2022-12-07T15:03:54;6.93;;;2.25;;
75837;SDS011;64480;52.040;113.502;2022-12-07T15:06:59;5.15;;;1.88;;
75837;SDS011;64480;52.040;113.502;2022-12-07T15:10:05;6.88;;;2.10;;
75837;SDS011;64480;52.040;113.502;2022-12-07T15:13:20;7.82;;;2.33;;
75837;SDS011;64480;52.040;113.502;2022-12-07T15:16:42;11.27;;;2.70;;
75837;SDS011;64480;52.040;113.502;2022-12-07T15:20:08;3.88;;;1.38;;
75837;SDS011;64480;52.040;113.502;2022-12-07T15:23:16;7.78;;;2.17;;
75837;SDS011;64480;52.040;113.502;2022-12-07T15:26:20;5.30;;;1.75;;
75837;SDS011;64480;52.040;113.502;2022-12-07T15:29:23;4.53;;;1.40;;
75837;SDS011;64480;52.040;113.502;2022-12-07T15:32:26;6.00;;;1.80;;
75837;SDS011;64480;52.040;113.502;2022-12-07T15:35:29;6.57;;;2.47;;
75837;SDS011;64480;52.040;113.502;2022-12-07T15:38:33;6.28;;;1.27;;
75837;SDS011;64480;52.040;113.502;2022-12-07T15:41:56;6.05;;;1.58;;
75837;SDS011;64480;52.040;113.502;2022-12-07T15:44:59;6.43;;;1.85;;
75837;SDS011;64480;52.040;113.502;2022-12-07T15:48:09;8.48;;;2.67;;
75837;SDS011;64480;52.040;113.502;2022-12-07T15:51:30;2.75;;;1.55;;
75837;SDS011;64480;52.040;113.502;2022-12-07T15:54:33;6.13;;;1.63;;
75837;SDS011;64480;52.040;113.502;2022-12-07T15:57:36;4.47;;;1.45;;
75837;SDS011;64480;52.040;113.502;2022-12-07T16:00:41;6.15;;;1.75;;
75837;SDS011;64480;52.040;113.502;2022-12-07T16:03:44;6.53;;;2.03;;
75837;SDS011;64480;52.040;113.502;2022-12-07T16:06:48;6.13;;;2.15;;
75837;SDS011;64480;52.040;113.502;2022-12-07T16:09:53;10.82;;;2.20;;
75837;SDS011;64480;52.040;113.502;2022-12-07T16:12:56;10.65;;;2.55;;
75837;SDS011;64480;52.040;113.502;2022-12-07T16:16:07;7.97;;;2.88;;
75837;SDS011;64480;52.040;113.502;2022-12-07T16:19:14;6.00;;;1.35;;
75837;SDS011;64480;52.040;113.502;2022-12-07T16:22:17;4.97;;;1.65;;
75837;SDS011;64480;52.040;113.502;2022-12-07T16:25:20;4.55;;;1.65;;
75837;SDS011;64480;52.040;113.502;2022-12-07T16:28:23;3.38;;;1.40;;
75837;SDS011;64480;52.040;113.502;2022-12-07T16:31:27;3.85;;;1.25;;
75837;SDS011;64480;52.040;113.502;2022-12-07T16:34:33;4.75;;;1.23;;
75837;SDS011;64480;52.040;113.502;2022-12-07T16:37:37;2.72;;;1.40;;
75837;SDS011;64480;52.040;113.502;2022-12-07T16:40:40;2.47;;;0.85;;
75837;SDS011;64480;52.040;113.502;2022-12-07T16:43:43;5.38;;;0.98;;
75837;SDS011;64480;52.040;113.502;2022-12-07T16:46:47;2.60;;;0.93;;
75837;SDS011;64480;52.040;113.502;2022-12-07T16:49:50;2.67;;;0.75;;
75837;SDS011;64480;52.040;113.502;2022-12-07T16:52:54;6.82;;;1.00;;
75837;SDS011;64480;52.040;113.502;2022-12-07T16:55:57;5.35;;;0.95;;
75837;SDS011;64480;52.040;113.502;2022-12-07T16:59:00;1.55;;;0.50;;
75837;SDS011;64480;52.040;113.502;2022-12-07T17:02:04;4.07;;;0.95;;
75837;SDS011;64480;52.040;113.502;2022-12-07T17:05:08;4.10;;;0.80;;
75837;SDS011;64480;52.040;113.502;2022-12-07T17:08:12;2.53;;;1.13;;
75837;SDS011;64480;52.040;113.502;2022-12-07T17:11:17;2.08;;;0.52;;
75837;SDS011;64480;52.040;113.502;2022-12-07T17:14:22;4.30;;;1.23;;
75837;SDS011;64480;52.040;113.502;2022-12-07T17:17:46;1.63;;;0.50;;
75837;SDS011;64480;52.040;113.502;2022-12-07T17:20:55;4.20;;;0.90;;
75837;SDS011;64480;52.040;113.502;2022-12-07T17:24:07;1.45;;;0.30;;
75837;SDS011;64480;52.040;113.502;2022-12-07T17:27:11;8.75;;;1.83;;
75837;SDS011;64480;52.040;113.502;2022-12-07T17:30:15;11.05;;;2.78;;
75837;SDS011;64480;52.040;113.502;2022-12-07T17:33:18;5.38;;;1.48;;
75837;SDS011;64480;52.040;113.502;2022-12-07T17:36:23;11.27;;;2.95;;
75837;SDS011;64480;52.040;113.502;2022-12-07T17:39:28;11.32;;;3.38;;
75837;SDS011;64480;52.040;113.502;2022-12-07T17:42:31;11.10;;;3.13;;
75837;SDS011;64480;52.040;113.502;2022-12-07T17:45:49;5.25;;;1.45;;
75837;SDS011;64480;52.040;113.502;2022-12-07T17:48:56;5.65;;;2.00;;
75837;SDS011;64480;52.040;113.502;2022-12-07T17:52:00;5.55;;;1.40;;
75837;SDS011;64480;52.040;113.502;2022-12-07T17:55:22;5.82;;;1.55;;
75837;SDS011;64480;52.040;113.502;2022-12-07T17:58:25;1.10;;;0.52;;
75837;SDS011;64480;52.040;113.502;2022-12-07T18:01:28;1.40;;;0.75;;
75837;SDS011;64480;52.040;113.502;2022-12-07T18:04:35;2.72;;;0.70;;
75837;SDS011;64480;52.040;113.502;2022-12-07T18:07:43;4.55;;;0.80;;
75837;SDS011;64480;52.040;113.502;2022-12-07T18:10:46;1.95;;;0.63;;
75837;SDS011;64480;52.040;113.502;2022-12-07T18:13:49;1.95;;;0.55;;
75837;SDS011;64480;52.040;113.502;2022-12-07T18:16:53;2.08;;;0.60;;
75837;SDS011;64480;52.040;113.502;2022-12-07T18:19:56;2.15;;;1.00;;
75837;SDS011;64480;52.040;113.502;2022-12-07T18:23:00;7.15;;;3.20;;
75837;SDS011;64480;52.040;113.502;2022-12-07T18:26:03;0.73;;;0.43;;
75837;SDS011;64480;52.040;113.502;2022-12-07T18:29:07;2.65;;;0.57;;
75837;SDS011;64480;52.040;113.502;2022-12-07T18:32:12;2.00;;;0.90;;
75837;SDS011;64480;52.040;113.502;2022-12-07T18:35:15;5.35;;;1.38;;
75837;SDS011;64480;52.040;113.502;2022-12-07T18:38:21;2.47;;;0.63;;
75837;SDS011;64480;52.040;113.502;2022-12-07T18:41:24;2.00;;;0.38;;
75837;SDS011;64480;52.040;113.502;2022-12-07T18:44:28;2.35;;;0.57;;
75837;SDS011;64480;52.040;113.502;2022-12-07T18:47:31;1.88;;;0.70;;
75837;SDS011;64480;52.040;113.502;2022-12-07T18:50:34;1.70;;;0.63;;
75837;SDS011;64480;52.040;113.502;2022-12-07T18:53:38;1.02;;;0.30;;
75837;SDS011;64480;52.040;113.502;2022-12-07T18:56:47;2.67;;;0.90;;
75837;SDS011;64480;52.040;113.502;2022-12-07T18:59:50;4.10;;;0.93;;
75837;SDS011;64480;52.040;113.502;2022-12-07T19:02:54;2.30;;;0.60;;
75837;SDS011;64480;52.040;113.502;2022-12-07T19:05:57;2.90;;;0.85;;
75837;SDS011;64480;52.040;113.502;2022-12-07T19:09:01;2.58;;;0.90;;
75837;SDS011;64480;52.040;113.502;2022-12-07T19:12:05;3.38;;;0.80;;
75837;SDS011;64480;52.040;113.502;2022-12-07T19:15:09;1.38;;;0.50;;
75837;SDS011;64480;52.040;113.502;2022-12-07T19:18:14;2.10;;;0.82;;
75837;SDS011;64480;52.040;113.502;2022-12-07T19:21:17;2.15;;;0.60;;
75837;SDS011;64480;52.040;113.502;2022-12-07T19:24:20;1.92;;;0.80;;
75837;SDS011;64480;52.040;113.502;2022-12-07T19:27:24;5.18;;;1.05;;
75837;SDS011;64480;52.040;113.502;2022-12-07T19:30:28;2.33;;;0.90;;
75837;SDS011;64480;52.040;113.502;2022-12-07T19:33:32;3.45;;;1.27;;
75837;SDS011;64480;52.040;113.502;2022-12-07T19:36:35;2.85;;;0.65;;
75837;SDS011;64480;52.040;113.502;2022-12-07T19:39:39;2.03;;;0.70;;
75837;SDS011;64480;52.040;113.502;2022-12-07T19:42:43;4.57;;;1.30;;
75837;SDS011;64480;52.040;113.502;2022-12-07T19:45:46;2.08;;;0.57;;
75837;SDS011;64480;52.040;113.502;2022-12-07T19:48:49;4.93;;;0.80;;
75837;SDS011;64480;52.040;113.502;2022-12-07T19:51:54;0.95;;;0.25;;
75837;SDS011;64480;52.040;113.502;2022-12-07T19:55:00;2.95;;;0.55;;
75837;SDS011;64480;52.040;113.502;2022-12-07T19:58:04;2.35;;;0.68;;
75837;SDS011;64480;52.040;113.502;2022-12-07T20:01:07;1.92;;;0.70;;
75837;SDS011;64480;52.040;113.502;2022-12-07T20:04:12;2.78;;;0.70;;
75837;SDS011;64480;52.040;113.502;2022-12-07T20:07:18;1.40;;;0.60;;
75837;SDS011;64480;52.040;113.502;2022-12-07T20:10:21;2.30;;;0.90;;
75837;SDS011;64480;52.040;113.502;2022-12-07T20:13:27;0.57;;;0.30;;
75837;SDS011;64480;52.040;113.502;2022-12-07T20:16:30;2.35;;;0.60;;
75837;SDS011;64480;52.040;113.502;2022-12-07T20:19:37;3.88;;;1.00;;
75837;SDS011;64480;52.040;113.502;2022-12-07T20:22:40;0.85;;;0.38;;
75837;SDS011;64480;52.040;113.502;2022-12-07T20:25:44;2.13;;;0.93;;
75837;SDS011;64480;52.040;113.502;2022-12-07T20:28:47;4.15;;;1.55;;
75837;SDS011;64480;52.040;113.502;2022-12-07T20:31:51;5.70;;;1.27;;
75837;SDS011;64480;52.040;113.502;2022-12-07T20:34:55;2.67;;;0.82;;
75837;SDS011;64480;52.040;113.502;2022-12-07T20:37:58;5.97;;;1.27;;
75837;SDS011;64480;52.040;113.502;2022-12-07T20:41:05;4.07;;;1.10;;
75837;SDS011;64480;52.040;113.502;2022-12-07T20:44:31;2.67;;;1.25;;
75837;SDS011;64480;52.040;113.502;2022-12-07T20:47:34;0.73;;;0.38;;
75837;SDS011;64480;52.040;113.502;2022-12-07T20:50:38;1.33;;;0.63;;
75837;SDS011;64480;52.040;113.502;2022-12-07T20:53:43;2.50;;;0.82;;
75837;SDS011;64480;52.040;113.502;2022-12-07T20:56:46;1.52;;;0.40;;
75837;SDS011;64480;52.040;113.502;2022-12-07T20:59:49;2.40;;;0.75;;
75837;SDS011;64480;52.040;113.502;2022-12-07T21:02:53;8.38;;;0.70;;
75837;SDS011;64480;52.040;113.502;2022-12-07T21:06:00;9.20;;;3.03;;